Time;durP1;ratioP1;P1;durP2;ratioP2;P2;SDS_P1;SDS_P2;PMS_P1;PMS_P2;Temp;Humidity;BMP_temperature;BMP_pressure;BME280_temperature;BME280_humidity;BME280_pressure;Samples;Min_cycle;Max_cycle;Signal;HPM_P1;HPM_P2
2023/08/02 00:00:06;;;;;;;3.62;2.10;;;;;;;26.87;43.15;98782.31;4482881;32;33483;-67
2023/08/02 00:02:37;;;;;;;6.50;2.60;;;;;;;26.86;43.19;98773.28;4482713;32;34951;-67
2023/08/02 00:05:05;;;;;;;5.85;2.60;;;;;;;26.86;43.21;98789.69;4482839;32;33914;-66
2023/08/02 00:07:33;;;;;;;4.70;2.40;;;;;;;26.85;43.19;98776.25;4482851;32;34579;-66
2023/08/02 00:10:03;;;;;;;9.20;2.83;;;;;;;26.84;43.23;98791.88;4485072;32;33093;-67
2023/08/02 00:12:31;;;;;;;5.55;2.83;;;;;;;26.84;43.29;98791.88;4485254;32;33617;-67
2023/08/02 00:14:58;;;;;;;3.70;2.30;;;;;;;26.86;43.41;98794.31;4485210;32;34748;-67
2023/08/02 00:17:26;;;;;;;4.95;2.62;;;;;;;26.85;43.34;98811.84;4470741;32;34025;-67
2023/08/02 00:19:53;;;;;;;5.15;2.58;;;;;;;26.86;43.26;98822.53;4485148;32;34283;-67
2023/08/02 00:22:21;;;;;;;5.20;2.35;;;;;;;26.84;43.25;98823.88;4485092;32;33586;-67
2023/08/02 00:24:48;;;;;;;5.97;2.60;;;;;;;26.84;43.27;98821.16;4485187;32;33869;-67
2023/08/02 00:27:16;;;;;;;6.75;2.87;;;;;;;26.83;43.27;98834.03;4485154;32;34454;-67
2023/08/02 00:29:43;;;;;;;4.72;2.47;;;;;;;26.82;43.28;98837.03;4485085;32;32900;-67
2023/08/02 00:32:11;;;;;;;4.25;2.42;;;;;;;26.82;43.23;98823.34;4484728;32;33442;-67
2023/08/02 00:34:39;;;;;;;4.57;2.35;;;;;;;26.83;43.26;98830.47;4470953;32;33886;-66
2023/08/02 00:37:06;;;;;;;5.32;2.75;;;;;;;26.81;43.28;98821.69;4470823;32;33872;-67
2023/08/02 00:39:34;;;;;;;6.85;2.80;;;;;;;26.80;43.25;98831.81;4484913;32;33541;-66
2023/08/02 00:42:02;;;;;;;5.28;2.67;;;;;;;26.81;43.31;98832.63;4485106;32;34069;-66
2023/08/02 00:44:29;;;;;;;5.82;2.62;;;;;;;26.79;43.32;98813.75;4484968;32;33707;-67
2023/08/02 00:46:57;;;;;;;6.40;3.08;;;;;;;26.79;43.32;98816.50;4484839;32;33611;-66
2023/08/02 00:49:25;;;;;;;4.40;2.50;;;;;;;26.76;43.42;98821.69;4458226;32;34510;-65
2023/08/02 00:51:52;;;;;;;4.35;2.35;;;;;;;26.76;43.43;98816.22;4485287;32;33940;-67
2023/08/02 00:54:20;;;;;;;5.45;2.60;;;;;;;26.75;43.46;98809.09;4485042;32;34114;-65
2023/08/02 00:56:47;;;;;;;5.07;2.47;;;;;;;26.75;43.46;98811.84;4484902;32;34121;-67
2023/08/02 00:59:15;;;;;;;4.95;2.70;;;;;;;26.75;43.49;98811.84;4455200;32;33575;-67
2023/08/02 01:01:45;;;;;;;5.22;2.97;;;;;;;26.73;43.46;98819.50;4468968;32;33615;-67
2023/08/02 01:04:12;;;;;;;6.30;3.28;;;;;;;26.71;43.57;98826.06;4455311;32;33973;-67
2023/08/02 01:06:48;;;;;;;7.18;3.33;;;;;;;26.70;43.55;98832.63;4455212;32;33881;-67
2023/08/02 01:09:38;;;;;;;6.00;3.20;;;;;;;26.70;43.56;98834.53;4443082;32;33309;-66
2023/08/02 01:12:09;;;;;;;5.45;3.05;;;;;;;26.71;43.63;98836.19;4454702;32;34766;-68
2023/08/02 01:14:40;;;;;;;6.65;3.17;;;;;;;26.66;43.68;98831.53;4469161;32;33974;-68
2023/08/02 01:17:24;;;;;;;5.60;3.50;;;;;;;26.64;43.67;98835.63;4445649;32;33901;-68
2023/08/02 01:19:52;;;;;;;5.18;3.30;;;;;;;26.63;43.67;98826.63;4442399;32;33192;-67
2023/08/02 01:22:20;;;;;;;6.43;3.78;;;;;;;26.62;43.81;98832.34;4469004;32;34063;-67
2023/08/02 01:24:48;;;;;;;6.05;3.35;;;;;;;26.62;43.78;98835.06;4468829;32;34089;-67
2023/08/02 01:27:21;;;;;;;6.97;3.75;;;;;;;26.60;43.79;98824.41;4468988;32;34061;-67
2023/08/02 01:29:50;;;;;;;6.47;3.10;;;;;;;26.60;43.77;98834.53;4455133;32;33549;-67
2023/08/02 01:32:19;;;;;;;5.67;3.43;;;;;;;26.59;43.86;98833.72;4441841;32;34407;-67
2023/08/02 01:34:46;;;;;;;7.47;3.78;;;;;;;26.59;43.80;98830.97;4454876;32;34014;-65
2023/08/02 01:37:14;;;;;;;8.18;3.80;;;;;;;26.57;43.80;98827.69;4454866;32;34020;-66
2023/08/02 01:39:42;;;;;;;7.53;3.15;;;;;;;26.58;43.83;98832.06;4468807;32;33613;-66
2023/08/02 01:42:10;;;;;;;7.32;3.40;;;;;;;26.58;43.80;98832.06;4468361;31;33503;-66
2023/08/02 01:44:39;;;;;;;7.53;3.10;;;;;;;26.57;43.78;98835.06;4468891;32;34843;-66
2023/08/02 01:47:06;;;;;;;6.03;3.47;;;;;;;26.58;43.75;98829.34;4468713;32;35081;-67
2023/08/02 01:49:34;;;;;;;5.40;3.15;;;;;;;26.58;43.76;98836.69;4468593;32;33513;-66
2023/08/02 01:52:01;;;;;;;7.65;3.08;;;;;;;26.58;43.74;98844.91;4468833;32;34184;-66
2023/08/02 01:54:30;;;;;;;6.53;3.00;;;;;;;26.58;43.67;98837.56;4468899;32;33860;-66
2023/08/02 01:56:57;;;;;;;7.55;3.30;;;;;;;26.58;43.67;98840.28;4468982;32;34073;-67
2023/08/02 01:59:25;;;;;;;5.87;3.22;;;;;;;26.59;43.67;98835.63;4482450;32;34300;-64
2023/08/02 02:01:53;;;;;;;6.47;2.97;;;;;;;26.60;43.70;98842.75;4484357;32;34499;-67
2023/08/02 02:04:21;;;;;;;5.70;3.05;;;;;;;26.59;43.56;98836.44;4484414;32;33975;-67
2023/08/02 02:06:49;;;;;;;5.68;2.87;;;;;;;26.59;43.49;98841.91;4484332;32;33793;-67
2023/08/02 02:09:17;;;;;;;5.55;3.00;;;;;;;26.59;43.51;98847.41;4470321;32;32545;-66
2023/08/02 02:11:45;;;;;;;5.32;3.03;;;;;;;26.59;43.50;98847.41;4484366;32;34773;-67
2023/08/02 02:14:12;;;;;;;5.65;2.65;;;;;;;26.59;43.49;98852.06;4484184;32;33901;-67
2023/08/02 02:16:40;;;;;;;7.22;3.30;;;;;;;26.60;43.46;98851.78;4484396;32;34718;-67
2023/08/02 02:19:08;;;;;;;4.35;2.58;;;;;;;26.59;43.41;98850.13;4484611;32;33026;-67
2023/08/02 02:21:36;;;;;;;6.30;2.72;;;;;;;26.59;43.38;98852.88;4484092;32;34076;-67
2023/08/02 02:24:04;;;;;;;3.97;2.40;;;;;;;26.59;43.33;98860.25;4484541;32;33927;-67
2023/08/02 02:26:31;;;;;;;7.03;2.90;;;;;;;26.59;43.30;98861.06;4484197;32;34125;-67
2023/08/02 02:29:00;;;;;;;5.75;3.17;;;;;;;26.59;43.28;98858.34;4484176;32;33225;-66
2023/08/02 02:31:27;;;;;;;4.60;2.80;;;;;;;26.58;43.28;98853.97;4482983;32;33697;-66
2023/08/02 02:33:55;;;;;;;5.72;3.25;;;;;;;26.58;43.26;98867.66;4484478;32;34013;-66
2023/08/02 02:36:23;;;;;;;4.45;2.67;;;;;;;26.58;43.25;98870.38;4483895;32;34507;-67
2023/08/02 02:38:51;;;;;;;5.18;2.92;;;;;;;26.58;43.25;98867.66;4484377;32;33455;-67
2023/08/02 02:41:18;;;;;;;6.35;3.00;;;;;;;26.58;43.23;98867.66;4484002;32;33813;-67
2023/08/02 02:43:46;;;;;;;5.32;3.03;;;;;;;26.58;43.20;98875.84;4483949;32;34813;-67
2023/08/02 02:46:13;;;;;;;5.62;2.90;;;;;;;26.57;43.18;98882.38;4483923;32;33753;-67
2023/08/02 02:48:41;;;;;;;6.22;3.12;;;;;;;26.57;43.12;98871.44;4484016;32;33324;-66
2023/08/02 02:51:09;;;;;;;4.50;2.92;;;;;;;26.58;43.08;98880.47;4483719;32;33221;-68
2023/08/02 02:53:36;;;;;;;4.70;2.90;;;;;;;26.57;43.07;98876.09;4484010;32;33628;-67
2023/08/02 02:56:04;;;;;;;4.25;2.58;;;;;;;26.56;43.02;98880.75;4483887;32;33656;-67
2023/08/02 02:58:31;;;;;;;5.22;3.35;;;;;;;26.56;42.98;98886.22;4483591;32;33307;-64
2023/08/02 03:00:59;;;;;;;7.70;2.78;;;;;;;26.57;43.01;98887.87;4483778;32;33795;-67
2023/08/02 03:03:27;;;;;;;5.82;2.80;;;;;;;26.57;43.03;98887.03;4484143;32;33652;-66
2023/08/02 03:05:54;;;;;;;5.05;2.62;;;;;;;26.56;42.97;98891.69;4483617;32;34135;-66
2023/08/02 03:08:22;;;;;;;4.70;2.87;;;;;;;26.57;42.97;98903.47;4483689;32;33450;-67
2023/08/02 03:10:49;;;;;;;5.35;3.15;;;;;;;26.55;42.96;98900.19;4483959;32;34041;-67
2023/08/02 03:13:17;;;;;;;5.10;2.60;;;;;;;26.55;42.94;98894.72;4483797;32;33908;-68
2023/08/02 03:15:45;;;;;;;4.22;2.62;;;;;;;26.55;42.97;98891.97;4483585;32;33985;-67
2023/08/02 03:18:12;;;;;;;5.07;2.70;;;;;;;26.54;42.95;98898.53;4483905;32;33511;-67
2023/08/02 03:20:40;;;;;;;5.30;2.85;;;;;;;26.53;42.95;98907.81;4483465;32;33913;-68
2023/08/02 03:23:08;;;;;;;5.70;2.62;;;;;;;26.52;42.95;98907.00;4469103;32;34177;-68
2023/08/02 03:25:36;;;;;;;4.87;2.85;;;;;;;26.53;42.96;98907.81;4483496;32;34034;-66
2023/08/02 03:28:04;;;;;;;4.18;2.80;;;;;;;26.52;42.96;98919.84;4483323;32;33679;-67
2023/08/02 03:30:31;;;;;;;5.00;2.30;;;;;;;26.50;42.96;98911.94;4483250;32;33816;-66
2023/08/02 03:32:59;;;;;;;5.68;2.50;;;;;;;26.50;42.94;98917.41;4483275;32;35011;-67
2023/08/02 03:35:26;;;;;;;4.20;2.45;;;;;;;26.51;42.88;98918.22;4483136;32;33591;-67
2023/08/02 03:37:54;;;;;;;5.05;2.60;;;;;;;26.49;42.89;98921.25;4483381;32;33509;-67
2023/08/02 03:40:22;;;;;;;4.03;2.20;;;;;;;26.49;42.89;98914.91;4483240;32;34804;-66
2023/08/02 03:42:50;;;;;;;5.60;2.50;;;;;;;26.49;42.91;98921.25;4483781;32;34641;-66
2023/08/02 03:45:18;;;;;;;4.05;2.00;;;;;;;26.48;42.89;98911.37;4485419;32;33925;-67
2023/08/02 03:47:45;;;;;;;4.70;2.58;;;;;;;26.49;42.88;98914.91;4485405;32;33114;-67
2023/08/02 03:50:13;;;;;;;5.82;2.58;;;;;;;26.48;42.85;98922.31;4485473;32;33436;-67
2023/08/02 03:52:41;;;;;;;3.53;2.08;;;;;;;26.48;42.84;98922.31;4485276;32;33636;-66
2023/08/02 03:55:08;;;;;;;6.78;2.30;;;;;;;26.49;42.83;98917.66;4485691;32;33491;-63
2023/08/02 03:57:36;;;;;;;4.47;2.10;;;;;;;26.49;42.85;98906.72;4485408;32;33250;-67
2023/08/02 04:00:04;;;;;;;5.47;2.42;;;;;;;26.49;42.85;98923.12;4485373;32;34790;-66
2023/08/02 04:02:38;;;;;;;5.07;2.20;;;;;;;26.48;42.84;98916.00;4485002;32;34021;-67
2023/08/02 04:05:06;;;;;;;5.05;2.60;;;;;;;26.49;42.85;98920.38;4485271;32;34742;-67
2023/08/02 04:07:33;;;;;;;4.40;2.30;;;;;;;26.47;42.86;98920.66;4485268;32;34052;-67
2023/08/02 04:10:01;;;;;;;4.72;2.45;;;;;;;26.48;42.87;98927.78;4485144;32;33166;-68
2023/08/02 04:12:30;;;;;;;4.47;2.35;;;;;;;26.47;42.87;98917.94;4485178;32;34040;-67
2023/08/02 04:14:57;;;;;;;6.70;2.50;;;;;;;26.47;42.82;98920.66;4485502;32;33834;-67
2023/08/02 04:17:28;;;;;;;7.57;2.30;;;;;;;26.48;42.79;98930.50;4485083;32;34131;-66
2023/08/02 04:19:55;;;;;;;4.82;2.22;;;;;;;26.49;42.78;98925.84;4485117;32;33828;-67
2023/08/02 04:22:23;;;;;;;4.82;2.30;;;;;;;26.48;42.77;98926.97;4485213;32;33902;-67
2023/08/02 04:24:50;;;;;;;10.32;2.42;;;;;;;26.48;42.76;98932.44;4484927;32;33897;-66
2023/08/02 04:27:18;;;;;;;4.00;2.25;;;;;;;26.48;42.82;98938.72;4485083;32;34346;-68
2023/08/02 04:29:46;;;;;;;5.07;2.47;;;;;;;26.47;42.80;98934.34;4485021;32;34971;-67
2023/08/02 04:32:13;;;;;;;3.47;2.00;;;;;;;26.47;42.82;98931.59;4484783;32;33513;-67
2023/08/02 04:34:41;;;;;;;4.45;2.50;;;;;;;26.48;42.82;98944.19;4485127;32;34775;-66
2023/08/02 04:37:08;;;;;;;4.30;2.25;;;;;;;26.48;42.82;98935.97;4485108;32;34060;-67
2023/08/02 04:39:36;;;;;;;3.35;2.00;;;;;;;26.48;42.85;98937.91;4485155;32;34551;-67
2023/08/02 04:42:04;;;;;;;5.00;2.20;;;;;;;26.47;42.85;98928.88;4484922;32;34176;-67
2023/08/02 04:44:32;;;;;;;6.40;2.47;;;;;;;26.47;42.90;98926.13;4485012;32;34882;-66
2023/08/02 04:46:59;;;;;;;4.22;2.10;;;;;;;26.47;42.94;98934.34;4484849;32;33122;-66
2023/08/02 04:49:27;;;;;;;5.03;2.08;;;;;;;26.46;42.95;98932.72;4484936;32;34587;-67
2023/08/02 04:51:55;;;;;;;7.03;2.50;;;;;;;26.46;43.04;98924.50;4485072;32;34124;-66
2023/08/02 04:54:35;;;;;;;4.78;2.12;;;;;;;26.45;43.06;98931.88;4484357;32;33591;-63
2023/08/02 04:57:03;;;;;;;4.35;2.15;;;;;;;26.44;43.04;98930.25;4470677;32;33725;-67
2023/08/02 04:59:31;;;;;;;4.25;2.20;;;;;;;26.47;43.07;98930.78;4484589;32;33896;-65
2023/08/02 05:01:58;;;;;;;4.78;2.42;;;;;;;26.45;43.11;98933.81;4484851;32;33994;-67
2023/08/02 05:04:26;;;;;;;3.65;1.80;;;;;;;26.45;43.21;98939.28;4484864;32;33407;-67
2023/08/02 05:06:54;;;;;;;4.20;1.90;;;;;;;26.44;43.24;98929.44;4484694;32;34705;-67
2023/08/02 05:09:24;;;;;;;4.97;2.42;;;;;;;26.44;43.30;98943.91;4484834;32;33591;-67
2023/08/02 05:11:56;;;;;;;5.22;2.10;;;;;;;26.45;43.26;98939.28;4459080;32;34010;-67
2023/08/02 05:14:23;;;;;;;7.32;2.65;;;;;;;26.45;43.30;98942.81;4484659;32;34043;-66
2023/08/02 05:16:50;;;;;;;4.18;2.03;;;;;;;26.45;43.38;98942.00;4484981;32;33565;-66
2023/08/02 05:19:18;;;;;;;3.83;2.20;;;;;;;26.47;43.37;98933.53;4484766;32;33813;-66
2023/08/02 05:21:46;;;;;;;4.07;2.45;;;;;;;26.45;43.45;98928.34;4484804;32;34132;-67
2023/08/02 05:24:13;;;;;;;5.15;1.85;;;;;;;26.45;43.44;98952.94;4484783;32;34482;-67
2023/08/02 05:26:41;;;;;;;3.83;2.15;;;;;;;26.46;43.46;98943.66;4484766;32;33368;-67
2023/08/02 05:29:08;;;;;;;4.93;2.25;;;;;;;26.45;43.50;98937.34;4484888;32;33876;-62
2023/08/02 05:31:36;;;;;;;4.15;2.30;;;;;;;26.44;43.58;98946.66;4484650;32;33898;-64
2023/08/02 05:34:05;;;;;;;4.20;2.15;;;;;;;26.44;43.70;98948.56;4484678;32;33636;-62
2023/08/02 05:36:33;;;;;;;6.72;2.40;;;;;;;26.43;43.70;98952.38;4484567;32;33240;-61
2023/08/02 05:39:00;;;;;;;5.53;2.12;;;;;;;26.42;43.68;98959.72;4457465;32;33549;-61
2023/08/02 05:41:28;;;;;;;5.40;2.28;;;;;;;26.42;43.72;98959.72;4484663;32;34032;-61
2023/08/02 05:43:55;;;;;;;4.65;2.10;;;;;;;26.43;43.76;98955.09;4470394;32;33561;-61
2023/08/02 05:46:23;;;;;;;5.32;2.10;;;;;;;26.41;43.70;98952.62;4484831;32;33601;-62
2023/08/02 05:48:50;;;;;;;3.50;2.03;;;;;;;26.42;43.69;98957.00;4484759;32;33958;-62
2023/08/02 05:51:18;;;;;;;4.80;1.83;;;;;;;26.42;43.61;98973.41;4484631;32;33617;-61
2023/08/02 05:53:45;;;;;;;5.70;2.10;;;;;;;26.42;43.67;98961.66;4484890;32;33484;-62
2023/08/02 05:56:13;;;;;;;3.33;2.08;;;;;;;26.41;43.72;98962.75;4470424;32;33458;-62
2023/08/02 05:58:41;;;;;;;6.57;2.22;;;;;;;26.41;43.73;98963.56;4470009;32;34511;-61
2023/08/02 06:01:09;;;;;;;4.37;2.12;;;;;;;26.41;43.70;98966.28;4484526;32;34047;-61
2023/08/02 06:03:37;;;;;;;4.00;1.98;;;;;;;26.42;43.67;98972.59;4484264;32;34701;-63
2023/08/02 06:06:04;;;;;;;4.72;2.33;;;;;;;26.41;43.64;98981.88;4484466;32;32909;-64
2023/08/02 06:08:32;;;;;;;4.10;1.70;;;;;;;26.42;43.67;98978.06;4484258;32;34129;-60
2023/08/02 06:11:01;;;;;;;3.75;1.87;;;;;;;26.42;43.71;98986.25;4484041;32;34885;-66
2023/08/02 06:13:29;;;;;;;6.73;3.03;;;;;;;26.41;43.76;98988.19;4484697;32;33921;-66
2023/08/02 06:15:56;;;;;;;4.82;2.37;;;;;;;26.43;43.89;98986.03;4484395;32;33486;-66
2023/08/02 06:18:24;;;;;;;5.25;2.30;;;;;;;26.43;43.86;98990.66;4484158;32;34637;-62
2023/08/02 06:20:51;;;;;;;7.25;2.30;;;;;;;26.44;43.80;98998.62;4484345;32;33448;-62
2023/08/02 06:23:19;;;;;;;4.20;2.20;;;;;;;26.44;43.85;99000.53;4484214;32;33561;-63
2023/08/02 06:25:46;;;;;;;2.95;1.85;;;;;;;26.43;43.81;98993.41;4484152;32;34326;-63
2023/08/02 06:28:14;;;;;;;4.43;1.90;;;;;;;26.44;43.80;98997.81;4457315;32;33913;-62
2023/08/02 06:30:42;;;;;;;5.57;2.17;;;;;;;26.44;43.84;99000.53;4481385;32;82870;-63
2023/08/02 06:33:09;;;;;;;3.62;1.83;;;;;;;26.45;43.83;99002.19;4484018;32;33941;-64
2023/08/02 06:35:37;;;;;;;4.97;2.20;;;;;;;26.45;43.93;99002.19;4484237;32;33936;-65
2023/08/02 06:38:04;;;;;;;5.00;2.55;;;;;;;26.44;43.98;98998.62;4484386;32;34670;-65
2023/08/02 06:40:32;;;;;;;3.85;2.10;;;;;;;26.44;44.07;99006.03;4483913;32;34701;-63
2023/08/02 06:43:00;;;;;;;4.25;2.10;;;;;;;26.43;44.01;99005.16;4483954;32;33902;-65
2023/08/02 06:45:27;;;;;;;5.85;2.80;;;;;;;26.43;44.14;99012.56;4483990;32;34735;-62
2023/08/02 06:47:55;;;;;;;5.10;2.28;;;;;;;26.43;44.20;99013.38;4483892;32;33692;-61
2023/08/02 06:50:23;;;;;;;5.15;2.33;;;;;;;26.43;44.31;99016.09;4484039;32;34039;-64
2023/08/02 06:52:50;;;;;;;4.30;2.25;;;;;;;26.43;44.24;99004.34;4477849;32;33641;-66
2023/08/02 06:55:19;;;;;;;4.80;2.37;;;;;;;26.42;44.27;99005.41;4454025;32;34152;-65
2023/08/02 06:57:47;;;;;;;4.07;2.37;;;;;;;26.41;44.17;99007.31;4465105;32;33648;-67
2023/08/02 07:00:14;;;;;;;4.40;2.20;;;;;;;26.42;44.25;99002.69;4470573;32;33464;-65
2023/08/02 07:02:42;;;;;;;4.12;2.10;;;;;;;26.43;44.49;99015.28;4468101;32;33605;-66
2023/08/02 07:05:10;;;;;;;4.55;2.70;;;;;;;26.41;44.37;99018.28;4467628;32;34156;-65
2023/08/02 07:07:38;;;;;;;10.05;2.92;;;;;;;26.44;44.41;99025.16;4450145;32;33938;-61
2023/08/02 07:10:05;;;;;;;4.45;2.37;;;;;;;26.43;44.32;99024.31;4483362;32;34675;-62
2023/08/02 07:12:33;;;;;;;5.50;2.30;;;;;;;26.44;44.33;99022.44;4476471;32;34665;-61
2023/08/02 07:15:02;;;;;;;7.50;2.35;;;;;;;26.44;44.34;99019.69;4468065;32;33483;-64
2023/08/02 07:17:30;;;;;;;6.18;2.37;;;;;;;26.43;44.33;99024.31;4467970;32;33776;-62
2023/08/02 07:19:57;;;;;;;6.12;2.87;;;;;;;26.47;44.40;99029.25;4469902;32;34700;-64
2023/08/02 07:22:25;;;;;;;6.03;2.37;;;;;;;26.46;44.54;99020.25;4481909;32;33876;-63
2023/08/02 07:24:54;;;;;;;4.90;2.30;;;;;;;26.47;44.68;99021.88;4485279;32;33760;-67
2023/08/02 07:27:21;;;;;;;5.60;2.60;;;;;;;26.48;44.58;99014.50;4485640;32;34548;-66
2023/08/02 07:29:52;;;;;;;4.72;2.03;;;;;;;26.49;44.62;99016.13;4485620;32;34448;-66
2023/08/02 07:32:21;;;;;;;7.12;2.42;;;;;;;26.48;44.47;99012.56;4485310;32;33553;-67
2023/08/02 07:34:50;;;;;;;;;;;;;;;26.49;44.57;99011.50;4478644;32;33348;-63
2023/08/02 07:37:18;;;;;;;4.45;2.50;;;;;;;26.59;44.33;99016.22;4454146;32;33981;-67
2023/08/02 07:39:45;;;;;;;4.18;2.10;;;;;;;26.51;44.36;99009.31;4454185;32;34057;-62
2023/08/02 07:42:13;;;;;;;6.12;2.42;;;;;;;26.50;44.35;99010.41;4454225;32;33909;-67
2023/08/02 07:44:40;;;;;;;4.32;2.42;;;;;;;26.50;44.28;99013.16;4480615;32;33167;-64
2023/08/02 07:47:09;;;;;;;5.90;2.00;;;;;;;26.50;44.18;99012.34;4485292;32;33808;-66
2023/08/02 07:49:36;;;;;;;5.50;2.40;;;;;;;26.52;44.08;99012.88;4485320;32;33621;-63
2023/08/02 07:52:04;;;;;;;5.07;1.80;;;;;;;26.53;44.04;99014.50;4474480;32;34493;-63
2023/08/02 07:54:32;;;;;;;5.30;2.10;;;;;;;26.52;44.03;99019.16;4455861;32;32912;-64
2023/08/02 07:57:12;;;;;;;3.75;1.62;;;;;;;26.53;44.09;99026.28;4453726;32;33835;-60
2023/08/02 07:59:40;;;;;;;5.43;2.20;;;;;;;26.55;44.04;99021.38;4468463;32;33586;-66
2023/08/02 08:02:08;;;;;;;3.85;2.00;;;;;;;26.58;44.06;99022.75;4472224;32;33877;-68
2023/08/02 08:04:35;;;;;;;3.15;1.92;;;;;;;26.57;43.96;99013.72;4472371;32;33300;-60
2023/08/02 08:07:03;;;;;;;4.57;2.10;;;;;;;26.58;44.00;99012.66;4469280;32;34961;-62
2023/08/02 08:09:31;;;;;;;4.72;1.87;;;;;;;26.59;44.08;99008.81;4469242;32;34501;-66
2023/08/02 08:12:02;;;;;;;3.60;1.85;;;;;;;26.61;44.12;99000.34;4468818;32;34196;-63
2023/08/02 08:14:30;;;;;;;4.80;2.17;;;;;;;26.62;44.13;99004.72;4469398;32;33334;-65
2023/08/02 08:16:58;;;;;;;3.28;2.00;;;;;;;26.63;44.06;99009.94;4455321;32;33660;-63
2023/08/02 08:19:26;;;;;;;3.47;1.62;;;;;;;26.67;44.05;99002.00;4468726;32;34768;-68
2023/08/02 08:21:53;;;;;;;4.47;2.35;;;;;;;26.67;43.99;98996.53;4455163;32;34511;-65
2023/08/02 08:24:21;;;;;;;4.10;2.30;;;;;;;26.65;43.58;99009.66;4469385;32;34251;-67
2023/08/02 08:26:50;;;;;;;11.43;2.40;;;;;;;26.65;43.31;98996.81;4468955;32;33845;-65
2023/08/02 08:29:17;;;;;;;3.00;1.73;;;;;;;26.65;43.27;98998.72;4468905;32;33778;-63
2023/08/02 08:31:45;;;;;;;3.40;1.85;;;;;;;26.66;43.13;99012.13;4478594;32;34012;-66
2023/08/02 08:34:13;;;;;;;6.07;2.40;;;;;;;26.65;43.01;99007.75;4470890;32;34202;-62
2023/08/02 08:36:40;;;;;;;3.40;1.90;;;;;;;26.67;42.79;99011.06;4479025;32;34011;-60
2023/08/02 08:39:08;;;;;;;5.82;2.10;;;;;;;26.68;42.78;99009.13;4469347;32;33738;-65
2023/08/02 08:41:36;;;;;;;3.22;1.98;;;;;;;26.68;42.69;99015.44;4469093;32;34595;-66
2023/08/02 08:44:03;;;;;;;5.25;2.25;;;;;;;26.71;42.56;99014.88;4483588;32;33386;-62
2023/08/02 08:46:32;;;;;;;5.18;1.87;;;;;;;26.71;42.77;99019.53;4442714;32;34574;-63
2023/08/02 08:49:01;;;;;;;;;;;;;;;26.70;42.82;99023.38;4477549;32;33913;-67
2023/08/02 08:51:33;;;;;;;3.15;1.50;;;;;;;26.82;42.72;99017.69;4472173;32;34401;-66
2023/08/02 08:54:11;;;;;;;6.55;2.10;;;;;;;26.76;42.95;99018.72;4449219;32;33067;-62
2023/08/02 08:56:40;;;;;;;4.87;2.25;;;;;;;26.75;43.02;99030.78;4470964;32;34635;-63
2023/08/02 08:59:08;;;;;;;3.03;1.83;;;;;;;26.73;43.09;99032.97;4457618;32;33923;-68
2023/08/02 09:01:39;;;;;;;4.95;1.75;;;;;;;26.76;43.03;99026.94;4483264;32;34808;-62
2023/08/02 09:04:07;;;;;;;3.58;1.90;;;;;;;26.73;43.12;99025.56;4470604;32;33797;-61
2023/08/02 09:06:36;;;;;;;3.92;2.17;;;;;;;26.73;43.14;99020.09;4454414;32;34759;-63
2023/08/02 09:09:03;;;;;;;2.60;1.50;;;;;;;26.75;43.15;99023.38;4475336;31;34029;-63
2023/08/02 09:11:30;;;;;;;3.00;1.80;;;;;;;26.76;42.99;99014.06;4468914;31;35226;-62
2023/08/02 09:14:28;;;;;;;5.30;1.95;;;;;;;26.76;42.95;99008.59;4472929;31;32935;-63
2023/08/02 09:17:02;;;;;;;3.42;1.80;;;;;;;26.80;42.71;99006.16;4470382;32;34456;-68
2023/08/02 09:19:32;;;;;;;2.30;1.40;;;;;;;26.76;42.77;99005.03;4484279;32;34107;-64
2023/08/02 09:22:13;;;;;;;4.50;2.00;;;;;;;26.76;42.73;99007.78;4482866;31;33719;-61
2023/08/02 09:24:43;;;;;;;3.37;1.60;;;;;;;26.79;42.71;99019.03;4478469;31;34411;-61
2023/08/02 09:27:17;;;;;;;3.67;1.80;;;;;;;26.76;42.39;99000.38;4484467;32;33981;-63
2023/08/02 09:29:49;;;;;;;7.80;2.05;;;;;;;26.77;42.42;99004.78;4478768;31;35134;-64
2023/08/02 09:32:17;;;;;;;4.93;1.87;;;;;;;26.78;42.45;99008.34;4481426;31;34023;-65
2023/08/02 09:34:47;;;;;;;;;;;;;;;26.78;42.50;99011.91;4480046;32;32044;-66
2023/08/02 09:37:15;;;;;;;5.57;2.00;;;;;;;26.89;42.18;99013.59;4482053;31;34125;-63
2023/08/02 09:39:50;;;;;;;4.03;1.58;;;;;;;26.85;41.77;99011.66;4483778;32;33700;-63
2023/08/02 09:42:21;;;;;;;3.20;1.80;;;;;;;26.80;41.59;99006.97;4483885;31;33887;-64
2023/08/02 09:44:54;;;;;;;3.45;1.58;;;;;;;26.79;41.69;99001.78;4472478;31;34136;-62
2023/08/02 09:47:21;;;;;;;4.55;2.08;;;;;;;26.81;41.61;99013.28;4470114;31;33650;-64
2023/08/02 09:50:08;;;;;;;3.28;1.62;;;;;;;26.81;41.51;99008.63;4481978;31;34668;-65
2023/08/02 09:52:39;;;;;;;4.32;2.25;;;;;;;26.86;41.11;99016.88;4469562;32;34020;-62
2023/08/02 09:55:07;;;;;;;3.20;1.90;;;;;;;26.84;41.37;99023.69;4468097;32;33790;-65
2023/08/02 09:57:35;;;;;;;2.62;1.58;;;;;;;26.85;41.48;99019.84;4469485;32;34436;-68
2023/08/02 10:00:07;;;;;;;4.10;1.87;;;;;;;26.84;41.71;99020.97;4484718;32;34032;-61
2023/08/02 10:02:38;;;;;;;4.93;1.83;;;;;;;26.84;41.62;99012.75;4454357;32;34936;-68
2023/08/02 10:05:07;;;;;;;3.55;1.87;;;;;;;26.87;41.06;99009.47;4459926;32;32534;-66
2023/08/02 10:07:45;;;;;;;3.22;1.90;;;;;;;26.87;40.90;99012.22;4470091;32;33945;-62
2023/08/02 10:10:38;;;;;;;6.70;2.20;;;;;;;26.86;40.71;99014.12;4483583;31;34547;-68
2023/08/02 10:13:08;;;;;;;4.12;1.80;;;;;;;26.91;40.52;99010.59;4461481;32;34281;-65
2023/08/02 10:15:38;;;;;;;3.83;1.85;;;;;;;26.89;40.41;99021.78;4470397;32;34267;-63
2023/08/02 10:18:06;;;;;;;3.97;1.90;;;;;;;26.89;40.32;99012.75;4462388;32;33408;-63
2023/08/02 10:20:33;;;;;;;5.10;2.03;;;;;;;26.89;40.54;99013.59;4454006;32;33930;-64
2023/08/02 10:23:04;;;;;;;4.35;1.80;;;;;;;26.90;40.64;99008.94;4469578;32;33943;-61
2023/08/02 10:25:32;;;;;;;3.12;1.80;;;;;;;26.89;40.77;98996.34;4470096;32;34238;-63
2023/08/02 10:27:59;;;;;;;3.60;2.10;;;;;;;26.90;40.55;98997.97;4466653;32;33827;-63
2023/08/02 10:30:29;;;;;;;4.62;1.92;;;;;;;26.89;40.55;98994.41;4468860;31;34767;-63
2023/08/02 10:33:19;;;;;;;4.73;1.80;;;;;;;26.91;40.27;98994.16;4466500;32;34029;-65
2023/08/02 10:36:07;;;;;;;4.15;2.05;;;;;;;26.93;40.29;98990.06;4476491;32;33441;-66
2023/08/02 10:38:37;;;;;;;5.00;2.00;;;;;;;26.92;39.70;98982.94;4482912;32;33548;-65
2023/08/02 10:41:05;;;;;;;3.15;1.62;;;;;;;26.94;39.83;98985.41;4481645;31;33979;-68
2023/08/02 10:43:32;;;;;;;3.53;1.65;;;;;;;26.92;39.26;98991.16;4481409;31;34693;-62
2023/08/02 10:46:22;;;;;;;3.12;1.70;;;;;;;26.92;39.43;98988.41;4469225;32;33531;-66
2023/08/02 10:48:51;;;;;;;3.83;1.85;;;;;;;26.95;39.57;98987.03;4469844;32;34838;-64
2023/08/02 10:51:28;;;;;;;5.20;2.08;;;;;;;26.93;39.72;98975.56;4482007;32;33868;-63
2023/08/02 10:54:15;;;;;;;2.83;1.65;;;;;;;26.97;39.40;98982.13;4482669;31;33382;-68
2023/08/02 10:56:52;;;;;;;4.30;2.03;;;;;;;26.96;39.31;98970.38;4455951;32;33240;-66
2023/08/02 10:59:24;;;;;;;12.63;2.10;;;;;;;26.96;39.66;98969.53;4468167;32;33940;-62
2023/08/02 11:01:55;;;;;;;1.77;1.45;;;;;;;26.99;39.80;98966.25;4482267;32;34338;-63
2023/08/02 11:04:25;;;;;;;2.30;1.33;;;;;;;26.99;39.56;98955.28;4482750;31;35588;-67
2023/08/02 11:06:54;;;;;;;5.32;1.73;;;;;;;27.02;38.31;98967.62;4483420;32;33486;-63
2023/08/02 11:09:31;;;;;;;3.33;1.77;;;;;;;27.01;38.02;98958.59;4483013;32;34745;-67
2023/08/02 11:12:12;;;;;;;5.00;1.83;;;;;;;27.04;37.33;98952.56;4460752;32;33607;-66
2023/08/02 11:14:41;;;;;;;3.85;1.60;;;;;;;27.08;36.52;98950.97;4478632;32;34266;-65
2023/08/02 11:17:10;;;;;;;3.25;1.55;;;;;;;27.06;36.35;98947.66;4456112;31;32855;-63
2023/08/02 11:19:44;;;;;;;3.60;1.67;;;;;;;27.07;36.46;98952.03;4443517;32;32550;-67
2023/08/02 11:22:37;;;;;;;3.70;1.40;;;;;;;27.10;36.16;98946.06;4460144;31;33919;-69
2023/08/02 11:25:06;;;;;;;2.97;1.58;;;;;;;27.07;36.43;98935.59;4479601;32;33784;-68
2023/08/02 11:27:35;;;;;;;3.55;1.65;;;;;;;27.09;36.38;98922.50;4454009;32;33105;-68
2023/08/02 11:30:07;;;;;;;3.15;1.65;;;;;;;27.08;36.55;98918.09;4467264;32;33889;-61
2023/08/02 11:32:42;;;;;;;4.60;1.50;;;;;;;27.10;37.04;98907.72;4459632;32;33939;-66
2023/08/02 11:35:18;;;;;;;3.25;1.60;;;;;;;27.13;37.22;98917.28;4469846;32;33917;-62
2023/08/02 11:37:46;;;;;;;2.87;1.42;;;;;;;27.12;37.10;98911.00;4468015;32;33607;-69
2023/08/02 11:40:14;;;;;;;4.85;1.73;;;;;;;27.13;37.09;98914.56;4474136;32;34472;-65
2023/08/02 11:42:48;;;;;;;2.85;1.48;;;;;;;27.12;37.07;98908.25;4463578;32;33888;-68